This is the latest recevied weather packets stored in our database for station/object AA0PB. If no packets are shown the sender has not sent any weather packets the latest 10 day(s).
| Time | Temp. | Humidity | Pressure | Rain* | Wind** | Luminosity | Snow |
|---|---|---|---|---|---|---|---|
| 1777660852 | 20.56° C | 54% | 1017.2 hPa | 0 mm | - | 609 W/m² | - |
| 1777660550 | 20° C | 56% | 1017.3 hPa | 0 mm | - | 604 W/m² | - |
| 1777660246 | 19.44° C | 59% | 1017.1 hPa | 0 mm | - | 618 W/m² | - |
| 1777659943 | 18.89° C | 61% | 1017.3 hPa | 0 mm | - | 564 W/m² | - |
| 1777659640 | 18.89° C | 59% | 1017.5 hPa | 0 mm | - | 571 W/m² | - |
| 1777659337 | 18.33° C | 65% | 1017.2 hPa | 0 mm | - | 595 W/m² | - |
| 1777659033 | 19.44° C | 60% | 1017.3 hPa | 0 mm | - | 482 W/m² | - |
| 1777658732 | 19.44° C | 59% | 1017.2 hPa | 0 mm | - | 539 W/m² | - |
| 1777658427 | 17.22° C | 64% | 1017.4 hPa | 0 mm | - | 543 W/m² | - |
| 1777658124 | 17.78° C | 65% | 1017.4 hPa | 0 mm | - | 483 W/m² | - |
| 1777657821 | 16.67° C | 68% | 1017.6 hPa | 0 mm | - | 465 W/m² | - |
| 1777657518 | 17.22° C | 66% | 1017.9 hPa | 0 mm | - | 410 W/m² | - |
| 1777657216 | 18.33° C | 64% | 1017.8 hPa | 0 mm | - | 421 W/m² | - |
| 1777656913 | 17.78° C | 64% | 1017.8 hPa | 0 mm | - | 461 W/m² | - |
| 1777656609 | 17.78° C | 64% | 1017.7 hPa | 0 mm | - | 496 W/m² | - |
| 1777656305 | 16.67° C | 69% | 1017.7 hPa | 0 mm | - | 482 W/m² | - |
| 1777656001 | 16.11° C | 70% | 1017.6 hPa | 0 mm | - | 467 W/m² | - |
| 1777655696 | 16.11° C | 71% | 1017.6 hPa | 0 mm | - | 452 W/m² | - |
| 1777655393 | 16.11° C | 69% | 1017.5 hPa | 0 mm | - | 415 W/m² | - |
| 1777655090 | 16.67° C | 68% | 1017.5 hPa | 0 mm | - | 413 W/m² | - |
| 1777654788 | 16.67° C | 67% | 1017.7 hPa | 0 mm | - | 404 W/m² | - |
| 1777654485 | 15.56° C | 72% | 1017.6 hPa | 0 mm | - | 410 W/m² | - |
| 1777654183 | 16.11° C | 70% | 1017.5 hPa | 0 mm | - | 442 W/m² | - |
| 1777653881 | 15.56° C | 71% | 1017.5 hPa | 0 mm | - | 410 W/m² | - |
| 1777653577 | 15° C | 71% | 1017.7 hPa | 0 mm | - | 376 W/m² | - |
* Rain latest hour (hover to see other rain measurements)
** Current wind speed in m/s (hover to see current wind gust speed)